Decoded Metar for EHVK (VOLKEL RNLAFB in NETHERLANDS) (IATA:N/A) | Meteo·Mobile Aviation Weather
aviador You're here:

EHVK Decoded Metar

VOLKEL RNLAFB in NETHERLANDS
Report Time2019-07-23 06:25:00
UTC Time2019-07-23 06:48:55
Flight Rules vfr VFR
Wind080° at 04 kt
W.Decomp.*RWY 06: 3.8 kt HW 1.3 kt RCW
Visibility9999 m
Phenomena:N/A
Clouds:Broken 350 Hf
Expected CloudBase > 2,400 ft AGL from Temp-Dew spread
Ceiling35,000 ft
Temp23°C (ISA +8)
Dew Point17°C (69% RH)
QNH1021 hPa
Density Alt1,004 ft
Elevation69 ft
Report Wrong Elevation
Raw Report
EHVK 230625Z AUTO 08004KT 050V120 9999 BKN350 23/17 Q1021 BLU
VRB02KT CAVOK BECMG 12005KT=

Extra information for EHVK:More info

Metar Taf Metar & Taf Last 4 Metars F.Rules Stats Wind Profile Meteogram Temp Stats Airport Information Weather charts Add Link Nearby VenuesMetar ALERT Operation Metar Decoded Social comments